createdAt,value
2023-03-28T00:03:22.492Z,6.33
2023-03-28T00:08:28.468Z,4.60
2023-03-28T00:13:31.176Z,3.03
2023-03-28T00:18:37.606Z,5.50
2023-03-28T00:23:42.731Z,5.70
2023-03-28T00:28:46.040Z,3.53
2023-03-28T00:33:48.770Z,6.53
2023-03-28T00:38:53.728Z,5.13
2023-03-28T00:43:57.054Z,6.77
2023-03-28T00:49:03.657Z,4.77
2023-03-28T00:54:11.984Z,9.07
2023-03-28T00:59:19.114Z,6.00
2023-03-28T01:42:38.706Z,7.07
2023-03-28T01:49:13.972Z,7.20
2023-03-28T03:08:52.910Z,7.80
2023-03-28T03:13:58.562Z,5.57
2023-03-28T03:19:01.496Z,9.43
2023-03-28T03:24:09.896Z,6.73
2023-03-28T03:29:12.673Z,7.97
2023-03-28T03:34:15.500Z,14.13
2023-03-28T03:39:19.826Z,10.43
2023-03-28T03:44:22.477Z,8.40
2023-03-28T03:49:25.236Z,5.20
2023-03-28T03:54:29.265Z,1.87
2023-03-28T03:59:31.925Z,4.70
2023-03-28T04:04:34.604Z,3.50
2023-03-28T04:09:39.177Z,2.33
2023-03-28T04:14:41.825Z,6.17
2023-03-28T04:19:45.854Z,5.13
2023-03-28T04:24:53.383Z,4.70
2023-03-28T04:29:56.151Z,4.53
2023-03-28T04:35:01.092Z,2.03
2023-03-28T04:40:10.360Z,9.73
2023-03-28T04:45:14.581Z,7.00
2023-03-28T04:50:19.471Z,3.83
2023-03-28T04:55:24.109Z,2.27
2023-03-28T05:00:27.545Z,6.50
2023-03-28T05:05:30.168Z,4.47
2023-03-28T05:10:34.170Z,4.53
2023-03-28T05:15:36.940Z,3.93
2023-03-28T05:20:39.637Z,2.70
2023-03-28T05:25:43.759Z,2.07
2023-03-28T05:30:46.805Z,5.47
2023-03-28T05:35:49.493Z,7.37
2023-03-28T05:40:53.700Z,4.20
2023-03-28T05:45:56.429Z,5.50
2023-03-28T05:50:59.359Z,8.23
2023-03-28T05:56:03.498Z,5.20
2023-03-28T06:01:06.964Z,6.87
2023-03-28T06:06:10.132Z,4.57
2023-03-28T06:11:15.054Z,5.07
2023-03-28T06:16:17.788Z,7.80
2023-03-28T06:21:20.553Z,6.60
2023-03-28T06:26:24.538Z,5.13
2023-03-28T06:31:27.223Z,4.10
2023-03-28T06:36:29.962Z,4.73
2023-03-28T06:41:34.035Z,6.07
2023-03-28T06:46:36.761Z,4.27
2023-03-28T06:51:39.444Z,3.80
2023-03-28T06:56:43.499Z,4.77
2023-03-28T07:01:46.239Z,3.00
2023-03-28T07:06:49.355Z,4.80
2023-03-28T07:11:53.448Z,3.60
2023-03-28T07:16:56.414Z,4.47
2023-03-28T07:21:59.211Z,2.63
2023-03-28T07:27:14.858Z,3.57
2023-03-28T07:32:18.612Z,2.70
2023-03-28T07:37:21.282Z,3.10
2023-03-28T07:42:26.933Z,4.30
2023-03-28T07:47:30.540Z,3.80
2023-03-28T07:52:33.512Z,6.67
2023-03-28T07:57:37.504Z,3.80
2023-03-28T08:02:44.034Z,3.70
2023-03-28T08:07:47.787Z,2.33
2023-03-28T08:12:52.423Z,3.40
2023-03-28T08:17:55.156Z,2.87
2023-03-28T08:22:57.929Z,3.17
2023-03-28T08:28:01.894Z,1.70
2023-03-28T08:33:05.059Z,4.63
2023-03-28T08:38:09.791Z,3.03
2023-03-28T08:43:43.109Z,5.40
2023-03-28T08:48:48.115Z,4.03
2023-03-28T08:53:56.526Z,2.67
2023-03-28T08:59:06.781Z,1.60
2023-03-28T09:04:14.915Z,2.47
2023-03-28T09:48:38.011Z,3.00
2023-03-28T10:01:04.367Z,2.40
2023-03-28T10:06:58.144Z,0.82
2023-03-28T10:19:46.592Z,1.27
2023-03-28T11:04:17.813Z,1.25
2023-03-28T11:27:45.334Z,1.63
2023-03-28T11:33:05.706Z,3.45
2023-03-28T11:38:14.952Z,1.02
2023-03-28T11:43:36.165Z,1.48
2023-03-28T11:48:55.383Z,2.40
2023-03-28T11:54:05.093Z,0.70
2023-03-28T11:59:18.911Z,1.50
2023-03-28T12:04:30.639Z,2.55
2023-03-28T12:09:49.489Z,1.60
2023-03-28T12:15:08.569Z,4.38
2023-03-28T12:20:32.636Z,2.05
2023-03-28T12:25:44.437Z,1.85
2023-03-28T12:30:59.509Z,3.05
2023-03-28T12:36:23.693Z,2.72
2023-03-28T12:41:40.235Z,5.25
2023-03-28T12:46:56.352Z,1.88
2023-03-28T12:52:27.240Z,0.82
2023-03-28T12:57:47.511Z,4.63
2023-03-28T13:02:58.021Z,2.55
2023-03-28T13:08:09.163Z,3.88
2023-03-28T13:13:22.771Z,3.50
2023-03-28T13:18:31.481Z,3.90
2023-03-28T13:23:45.694Z,1.58
2023-03-28T13:28:51.556Z,5.45
2023-03-28T13:33:58.556Z,1.98
2023-03-28T13:39:19.518Z,2.53
2023-03-28T13:44:26.146Z,2.72
2023-03-28T13:49:44.562Z,3.67
2023-03-28T13:54:54.013Z,2.03
2023-03-28T13:59:59.542Z,3.33
2023-03-28T14:05:19.378Z,3.88
2023-03-28T14:10:31.674Z,6.73
2023-03-28T14:15:37.024Z,6.67
2023-03-28T14:20:40.549Z,5.70
2023-03-28T14:25:44.660Z,4.03
2023-03-28T14:30:47.311Z,3.97
2023-03-28T14:36:01.656Z,6.07
2023-03-28T14:41:19.236Z,2.75
2023-03-28T14:46:24.278Z,4.60
2023-03-28T14:51:28.085Z,3.70
2023-03-28T14:56:32.569Z,7.60
2023-03-28T15:01:35.553Z,2.83
2023-03-28T15:06:39.270Z,6.93
2023-03-28T15:11:44.501Z,4.57
2023-03-28T15:16:48.196Z,5.57
2023-03-28T15:21:56.132Z,3.90
2023-03-28T15:27:03.778Z,4.27
2023-03-28T15:32:08.874Z,3.60
2023-03-28T15:37:19.468Z,5.80
2023-03-28T15:42:37.121Z,4.33
2023-03-28T15:47:41.225Z,3.63
2023-03-28T15:52:44.702Z,3.27
2023-03-28T15:57:49.195Z,4.23
2023-03-28T16:02:51.970Z,5.17
2023-03-28T16:07:54.664Z,4.10
2023-03-28T16:12:58.680Z,3.73
2023-03-28T16:18:01.864Z,4.87
2023-03-28T16:23:06.578Z,3.03
2023-03-28T16:28:18.097Z,5.33
2023-03-28T16:33:20.840Z,5.33
2023-03-28T16:38:23.861Z,3.53
2023-03-28T16:43:27.827Z,5.83
2023-03-28T16:48:32.314Z,5.67
2023-03-28T16:53:35.767Z,4.57
2023-03-28T16:58:40.150Z,5.40
2023-03-28T17:03:43.250Z,7.93
2023-03-28T17:08:46.353Z,6.47
2023-03-28T17:13:52.573Z,9.37
2023-03-28T17:18:55.442Z,7.47
2023-03-28T20:31:45.016Z,18.90
2023-03-28T20:36:49.612Z,15.27
2023-03-28T20:41:53.904Z,15.53
2023-03-28T20:46:56.902Z,21.97
2023-03-28T20:51:59.654Z,21.93
2023-03-28T20:57:04.184Z,10.63
2023-03-28T21:02:11.093Z,15.53
2023-03-28T21:07:14.783Z,13.90
2023-03-28T21:12:19.825Z,11.97
2023-03-28T21:17:25.721Z,15.97
2023-03-28T21:22:28.416Z,14.27
2023-03-28T21:27:34.273Z,11.90
2023-03-28T21:32:36.966Z,12.03
2023-03-28T21:37:39.819Z,10.23
2023-03-28T21:42:43.922Z,11.83
2023-03-28T21:47:46.840Z,10.70
2023-03-28T21:52:49.652Z,9.33
2023-03-28T21:57:53.634Z,13.13
2023-03-28T22:02:56.465Z,14.77
2023-03-28T22:07:59.757Z,15.93
2023-03-28T22:13:06.622Z,11.60
2023-03-28T22:18:11.325Z,13.50
2023-03-28T22:23:14.013Z,10.00
2023-03-28T22:28:18.840Z,12.83
2023-03-28T22:33:23.160Z,8.93
2023-03-28T22:38:25.926Z,12.43
2023-03-28T22:43:30.055Z,9.80
2023-03-28T22:48:32.793Z,10.57
2023-03-28T22:53:37.123Z,18.30
2023-03-28T22:58:41.102Z,8.70
2023-03-28T23:03:43.869Z,10.57
2023-03-28T23:08:46.984Z,13.40
2023-03-28T23:13:51.656Z,11.53
2023-03-28T23:18:54.467Z,8.63
2023-03-28T23:23:57.228Z,9.77
2023-03-28T23:29:02.048Z,9.13
2023-03-28T23:34:04.687Z,8.80
2023-03-28T23:39:07.372Z,9.33
2023-03-28T23:44:11.561Z,10.40
2023-03-28T23:49:14.218Z,6.20
2023-03-28T23:54:18.581Z,8.37
2023-03-28T23:59:23.384Z,7.07
